Time;durP1;ratioP1;P1;durP2;ratioP2;P2;SDS_P1;SDS_P2;PMS_P1;PMS_P2;Temp;Humidity;BMP_temperature;BMP_pressure;BME280_temperature;BME280_humidity;BME280_pressure;Samples;Min_cycle;Max_cycle;Signal;HPM_P1;HPM_P2
2023/01/09 00:01:32;;;;;;;120.83;48.43;;;;;;;1.61;83.43;95133.72;5011474;28;20232;-76
2023/01/09 00:03:58;;;;;;;96.97;44.55;;;;;;;1.57;83.66;95122.81;5009483;28;20805;-77
2023/01/09 00:06:24;;;;;;;83.17;36.67;;;;;;;1.62;83.23;95130.16;5011595;28;20264;-76
2023/01/09 00:08:49;;;;;;;87.20;39.00;;;;;;;1.54;83.29;95125.72;5010465;28;20224;-77
2023/01/09 00:11:15;;;;;;;96.07;38.87;;;;;;;1.56;82.84;95126.38;5011551;28;20705;-77
2023/01/09 00:13:40;;;;;;;68.73;31.13;;;;;;;1.58;82.80;95118.44;5011368;28;20168;-77
2023/01/09 00:16:07;;;;;;;65.67;31.87;;;;;;;1.57;83.84;95119.41;5011577;28;20578;-76
2023/01/09 00:18:34;;;;;;;68.20;30.43;;;;;;;1.45;83.52;95111.88;5011324;28;20222;-76
2023/01/09 00:21:05;;;;;;;62.83;30.73;;;;;;;1.42;84.06;95121.72;5011696;28;21734;-77
2023/01/09 00:23:31;;;;;;;65.33;30.53;;;;;;;1.32;82.94;95101.03;5011254;28;20164;-77
2023/01/09 00:26:07;;;;;;;71.30;31.40;;;;;;;1.44;83.12;95125.78;5011228;28;20234;-77
2023/01/09 00:28:33;;;;;;;96.00;39.20;;;;;;;1.45;82.68;95121.41;5011284;28;20295;-76
2023/01/09 00:31:00;;;;;;;75.17;36.63;;;;;;;1.28;82.53;95102.31;5011262;28;20176;-77
2023/01/09 00:33:33;;;;;;;91.80;42.53;;;;;;;1.34;83.82;95119.03;5011461;28;20634;-77
2023/01/09 00:35:58;;;;;;;98.90;41.30;;;;;;;1.14;83.91;95092.44;5011352;28;20191;-77
2023/01/09 00:38:24;;;;;;;116.73;49.43;;;;;;;1.18;83.84;95106.75;5011121;28;20172;-77
2023/01/09 00:40:49;;;;;;;120.23;47.50;;;;;;;1.24;84.94;95107.94;5011344;28;20199;-77
2023/01/09 00:43:16;;;;;;;109.83;46.10;;;;;;;1.29;84.49;95118.69;5011302;28;20326;-77
2023/01/09 00:45:41;;;;;;;108.17;46.57;;;;;;;0.95;84.46;95075.25;5010211;28;20917;-77
2023/01/09 00:48:12;;;;;;;120.35;48.20;;;;;;;1.27;84.09;95128.38;5022881;28;20398;-77
2023/01/09 00:50:39;;;;;;;107.07;45.70;;;;;;;1.26;84.00;95118.97;5029385;28;20179;-77
2023/01/09 00:53:16;;;;;;;102.40;47.57;;;;;;;1.24;83.86;95126.88;5020979;28;20188;-77
2023/01/09 00:55:41;;;;;;;76.53;37.87;;;;;;;1.28;84.56;95119.66;5010996;28;20168;-77
2023/01/09 00:58:07;;;;;;;58.27;27.67;;;;;;;1.14;84.55;95097.63;5011075;28;20189;-77
2023/01/09 01:00:33;;;;;;;57.97;26.70;;;;;;;1.21;83.93;95111.63;5011024;28;20703;-77
2023/01/09 01:02:58;;;;;;;57.07;27.27;;;;;;;1.22;83.94;95121.03;5011041;28;20184;-76
2023/01/09 01:08:17;;;;;;;52.77;24.77;;;;;;;1.15;83.97;95104.44;5020918;28;20182;-75
2023/01/09 01:10:43;;;;;;;49.33;25.37;;;;;;;1.10;84.23;95104.91;5034835;28;20183;-75
2023/01/09 01:13:09;;;;;;;55.37;24.37;;;;;;;1.08;84.26;95099.03;5034785;28;20193;-75
2023/01/09 01:15:38;;;;;;;54.07;25.67;;;;;;;1.11;84.36;95093.56;5016717;28;20180;-76
2023/01/09 01:18:04;;;;;;;60.57;27.17;;;;;;;1.28;83.42;95101.50;5014585;28;20255;-76
2023/01/09 01:20:29;;;;;;;55.57;25.77;;;;;;;1.23;83.45;95095.91;5014650;28;20208;-76
2023/01/09 01:22:55;;;;;;;65.43;28.73;;;;;;;1.06;83.70;95076.81;5013707;28;20651;-76
2023/01/09 01:25:20;;;;;;;66.07;30.40;;;;;;;0.82;83.71;95048.88;5014369;28;20274;-76
2023/01/09 01:27:46;;;;;;;65.03;29.77;;;;;;;1.20;84.04;95098.84;5013362;28;20173;-75
2023/01/09 01:30:13;;;;;;;68.67;29.93;;;;;;;0.94;83.97;95068.44;5014614;28;20195;-75
2023/01/09 01:32:39;;;;;;;62.63;29.40;;;;;;;1.17;83.64;95086.16;5014467;28;20172;-75
2023/01/09 01:35:05;;;;;;;54.90;26.03;;;;;;;1.04;83.71;95066.59;5014427;28;20698;-75
2023/01/09 01:37:34;;;;;;;71.20;30.67;;;;;;;1.18;84.13;95088.59;5014311;28;20659;-75
2023/01/09 01:39:59;;;;;;;81.70;32.47;;;;;;;1.09;83.58;95071.34;5020713;28;20175;-76
2023/01/09 01:42:25;;;;;;;86.13;36.13;;;;;;;1.19;83.44;95081.66;5034016;28;20178;-75
2023/01/09 01:45:13;;;;;;;87.00;34.37;;;;;;;0.97;83.75;95044.81;5014358;28;20187;-75
2023/01/09 01:48:00;;;;;;;84.83;36.67;;;;;;;1.12;83.75;95071.06;5014659;28;20168;-76
2023/01/09 01:50:55;;;;;;;75.97;31.30;;;;;;;1.06;83.37;95064.66;5013946;28;20300;-75
2023/01/09 01:53:31;;;;;;;46.03;21.17;;;;;;;0.75;84.21;95019.34;5013866;28;20227;-75
2023/01/09 01:55:59;;;;;;;51.70;25.67;;;;;;;0.99;84.83;95044.69;5018681;28;20637;-75
2023/01/09 01:58:26;;;;;;;56.13;24.87;;;;;;;1.01;83.74;95042.75;5017366;28;20188;-75
2023/01/09 02:00:51;;;;;;;46.93;22.60;;;;;;;0.95;83.71;95036.38;5014084;28;20676;-76
2023/01/09 02:03:22;;;;;;;48.40;23.13;;;;;;;1.00;83.44;95051.50;5023612;28;20200;-75
2023/01/09 02:05:48;;;;;;;54.83;24.70;;;;;;;0.99;83.41;95042.91;5024078;28;20168;-75
2023/01/09 02:08:13;;;;;;;53.23;24.53;;;;;;;0.96;83.57;95040.59;5032334;28;20163;-75
2023/01/09 02:10:39;;;;;;;44.80;22.97;;;;;;;0.83;83.95;95016.84;5035280;28;20692;-75
2023/01/09 02:13:06;;;;;;;46.83;23.73;;;;;;;1.02;84.58;95039.22;5020894;28;20184;-75
2023/01/09 02:15:59;;;;;;;48.70;23.17;;;;;;;0.74;83.76;95000.41;5013485;28;20263;-75
2023/01/09 02:18:36;;;;;;;51.47;23.50;;;;;;;0.90;84.29;95020.47;5005149;28;20195;-75
2023/01/09 02:21:13;;;;;;;72.13;28.80;;;;;;;1.05;84.98;95042.28;5011890;28;20211;-75
2023/01/09 02:23:47;;;;;;;71.30;29.67;;;;;;;1.06;83.49;95043.94;5013406;28;20180;-75
2023/01/09 02:26:27;;;;;;;65.63;27.77;;;;;;;1.05;83.95;95041.47;5013129;28;20196;-75
2023/01/09 02:29:07;;;;;;;88.83;31.30;;;;;;;0.96;83.75;95038.00;5013084;28;20580;-75
2023/01/09 02:31:57;;;;;;;63.87;28.83;;;;;;;0.92;84.88;95041.88;5012204;28;20196;-75
2023/01/09 02:34:38;;;;;;;72.63;30.87;;;;;;;0.76;85.52;95002.84;5013497;28;20235;-75
2023/01/09 02:37:07;;;;;;;67.23;29.40;;;;;;;0.95;84.79;95026.00;5013134;28;20557;-75
2023/01/09 02:39:59;;;;;;;55.77;24.30;;;;;;;0.92;83.88;95026.31;5013339;28;20176;-75
2023/01/09 02:42:25;;;;;;;61.30;25.30;;;;;;;0.93;84.35;95024.53;5013042;28;20180;-75
2023/01/09 02:44:52;;;;;;;62.70;24.43;;;;;;;0.70;84.30;94993.06;5013319;28;20258;-75
2023/01/09 02:47:17;;;;;;;52.57;23.87;;;;;;;0.84;83.62;95023.66;5011665;28;20247;-75
2023/01/09 02:49:47;;;;;;;59.43;26.43;;;;;;;0.77;84.44;95021.81;5013018;28;20195;-75
2023/01/09 02:52:21;;;;;;;68.40;26.67;;;;;;;0.68;84.39;95018.31;5020598;28;20183;-75
2023/01/09 02:55:11;;;;;;;61.63;26.27;;;;;;;0.72;84.48;95025.63;5032547;28;20171;-75
2023/01/09 02:58:15;;;;;;;64.90;27.10;;;;;;;0.71;84.55;95023.19;5032658;28;20168;-75
2023/01/09 03:00:55;;;;;;;58.30;27.13;;;;;;;0.59;84.52;95003.66;5025583;28;20725;-75
2023/01/09 03:04:19;;;;;;;63.63;27.70;;;;;;;0.69;85.42;95028.50;5032487;28;20233;-75
2023/01/09 03:06:59;;;;;;;66.53;26.63;;;;;;;0.70;84.75;95016.38;5020234;28;20935;-75
2023/01/09 03:09:29;;;;;;;62.00;26.03;;;;;;;0.71;84.43;95016.22;4992789;28;20196;-75
2023/01/09 03:12:05;;;;;;;81.40;28.43;;;;;;;0.74;84.25;95010.75;4993313;28;20161;-75
2023/01/09 03:14:32;;;;;;;65.97;29.38;;;;;;;0.46;85.68;94991.03;4991354;28;20418;-75
2023/01/09 03:17:02;;;;;;;66.17;28.93;;;;;;;0.60;85.64;95005.28;4993414;28;20158;-75
2023/01/09 03:19:31;;;;;;;66.97;28.17;;;;;;;0.64;85.50;95014.38;4992831;28;20625;-75
2023/01/09 03:21:57;;;;;;;58.10;25.50;;;;;;;0.77;84.75;95034.75;4995701;28;20180;-75
2023/01/09 03:24:23;;;;;;;54.33;23.73;;;;;;;0.40;84.00;94970.09;5012573;28;20172;-75
2023/01/09 03:26:49;;;;;;;67.67;26.97;;;;;;;0.58;83.58;94997.66;5012323;28;20179;-75
2023/01/09 03:29:14;;;;;;;59.07;25.40;;;;;;;0.63;83.76;95018.75;5012186;28;20756;-75
2023/01/09 03:31:40;;;;;;;62.00;26.70;;;;;;;0.45;84.38;94986.81;5012021;28;20299;-75
2023/01/09 03:34:05;;;;;;;73.73;27.67;;;;;;;0.72;83.67;95017.88;5012198;28;20181;-75
2023/01/09 03:36:31;;;;;;;63.00;26.13;;;;;;;0.71;83.88;95018.00;5012081;28;20997;-76
2023/01/09 03:38:56;;;;;;;65.73;26.87;;;;;;;0.48;83.79;94970.19;5012664;28;20226;-75
2023/01/09 03:41:22;;;;;;;62.93;25.17;;;;;;;0.52;83.46;94981.91;5010620;28;20179;-75
2023/01/09 03:43:47;;;;;;;59.37;26.53;;;;;;;0.79;83.47;95020.66;5011856;28;20176;-75
2023/01/09 03:46:14;;;;;;;56.47;25.10;;;;;;;0.72;83.99;95017.03;5011051;28;20195;-76
2023/01/09 03:48:40;;;;;;;57.80;25.53;;;;;;;0.73;85.46;95022.09;5011878;28;20203;-75
2023/01/09 03:51:05;;;;;;;65.20;27.90;;;;;;;0.79;85.42;95025.84;5011729;28;20173;-76
2023/01/09 03:53:31;;;;;;;91.07;34.30;;;;;;;0.60;85.20;95007.88;5014852;28;20644;-75
2023/01/09 03:55:57;;;;;;;80.17;33.07;;;;;;;0.69;85.17;95025.91;5031664;28;20258;-76
2023/01/09 03:58:25;;;;;;;112.50;44.27;;;;;;;0.53;84.95;95004.22;5031600;28;20175;-76
2023/01/09 04:00:51;;;;;;;103.07;38.60;;;;;;;0.62;85.14;95026.66;5031447;28;20313;-76
2023/01/09 04:03:19;;;;;;;96.73;38.10;;;;;;;0.63;86.12;95023.91;5031272;28;20172;-75
2023/01/09 04:05:46;;;;;;;100.60;42.87;;;;;;;0.50;85.94;95000.16;5030120;28;20246;-75
2023/01/09 04:08:12;;;;;;;96.80;39.00;;;;;;;0.58;85.77;95002.03;5020305;28;20184;-75
2023/01/09 04:10:38;;;;;;;92.93;38.43;;;;;;;0.78;85.60;95016.44;5011722;28;20532;-76
2023/01/09 04:13:05;;;;;;;91.00;39.43;;;;;;;0.66;85.37;94997.75;5011837;28;20561;-76
2023/01/09 04:15:30;;;;;;;110.20;43.43;;;;;;;0.64;85.26;95022.16;5011348;28;20180;-76
2023/01/09 04:17:56;;;;;;;69.57;33.80;;;;;;;0.49;85.77;95011.47;5010426;28;20481;-76
2023/01/09 04:20:21;;;;;;;59.93;31.53;;;;;;;0.42;87.58;94991.50;5008823;28;20452;-76
2023/01/09 04:22:46;;;;;;;68.53;32.63;;;;;;;0.14;87.73;94937.16;5008801;28;20198;-75
2023/01/09 04:25:12;;;;;;;64.70;31.70;;;;;;;0.63;86.48;95007.56;5009338;28;20180;-77
2023/01/09 04:27:38;;;;;;;80.27;36.17;;;;;;;0.61;86.59;95010.28;5011165;28;20183;-75
2023/01/09 04:30:04;;;;;;;76.57;35.07;;;;;;;0.69;85.89;95014.78;5011413;28;20211;-76
2023/01/09 04:32:30;;;;;;;90.60;36.77;;;;;;;0.57;85.17;94990.03;5010258;28;20897;-75
2023/01/09 04:34:56;;;;;;;92.33;36.60;;;;;;;0.56;85.12;94985.81;5011137;28;20177;-76
2023/01/09 04:37:22;;;;;;;130.10;45.77;;;;;;;0.52;85.14;94981.91;5007190;28;20192;-75
2023/01/09 04:39:48;;;;;;;103.70;37.80;;;;;;;0.71;85.82;94994.69;5005357;28;20176;-76
2023/01/09 04:42:14;;;;;;;88.30;36.93;;;;;;;0.71;85.58;95002.47;4998856;28;20200;-76
2023/01/09 04:44:39;;;;;;;103.67;39.17;;;;;;;0.43;84.94;94956.88;5001339;28;20185;-76
2023/01/09 04:47:04;;;;;;;115.17;49.90;;;;;;;0.66;85.38;95004.69;5000231;28;20438;-76
2023/01/09 04:49:30;;;;;;;101.13;44.30;;;;;;;0.65;86.14;95003.06;5007854;28;20676;-76
2023/01/09 04:51:56;;;;;;;89.83;39.30;;;;;;;0.31;85.95;94938.97;5010971;28;20184;-76
2023/01/09 04:54:22;;;;;;;94.77;40.30;;;;;;;0.64;85.48;94991.06;5011263;28;20180;-76
2023/01/09 04:56:47;;;;;;;108.83;41.70;;;;;;;0.74;85.69;94986.63;5010454;28;20186;-76
2023/01/09 04:59:13;;;;;;;95.60;42.40;;;;;;;0.73;86.21;94983.22;5022130;28;20214;-76
2023/01/09 05:01:39;;;;;;;97.30;41.90;;;;;;;0.71;86.14;94984.34;5030887;28;20618;-76
2023/01/09 05:04:05;;;;;;;98.77;42.17;;;;;;;0.78;85.63;94993.13;5030814;28;20202;-76
2023/01/09 05:06:30;;;;;;;93.70;41.77;;;;;;;-0.23;85.51;94838.94;5012251;28;20246;-76
2023/01/09 05:08:56;;;;;;;101.63;42.20;;;;;;;0.75;85.00;94993.44;5010996;28;20208;-76
2023/01/09 05:11:22;;;;;;;110.30;45.17;;;;;;;0.69;85.20;94976.69;5011333;28;20184;-76
2023/01/09 05:13:48;;;;;;;96.90;45.07;;;;;;;0.77;85.77;94988.94;5010950;28;20184;-76
2023/01/09 05:16:13;;;;;;;110.67;49.17;;;;;;;0.81;86.10;94992.84;5010567;28;20247;-76
2023/01/09 05:18:39;;;;;;;113.17;47.73;;;;;;;0.86;85.99;95005.38;5010758;28;20179;-76
2023/01/09 05:21:04;;;;;;;99.40;47.13;;;;;;;0.71;85.47;94979.16;5010927;28;20180;-78
2023/01/09 05:23:30;;;;;;;107.87;46.73;;;;;;;0.84;84.53;95017.66;5010020;28;20655;-76
2023/01/09 05:25:55;;;;;;;105.80;48.17;;;;;;;0.79;84.50;95010.31;5010078;28;20212;-75
2023/01/09 05:28:20;;;;;;;125.07;54.70;;;;;;;0.71;84.29;95018.00;5010810;28;20180;-76
2023/01/09 05:30:46;;;;;;;144.80;64.03;;;;;;;0.75;84.47;95014.16;5009344;28;20263;-75
2023/01/09 05:33:12;;;;;;;147.97;60.30;;;;;;;0.68;85.14;95003.59;5010532;28;20176;-77
2023/01/09 05:35:37;;;;;;;126.27;57.40;;;;;;;0.66;85.80;95009.88;5010517;28;20176;-77
2023/01/09 05:38:02;;;;;;;121.70;56.60;;;;;;;0.63;86.26;94997.19;5003875;28;20180;-77
2023/01/09 05:40:28;;;;;;;134.97;55.93;;;;;;;0.56;86.59;95001.34;4995540;28;20227;-77
2023/01/09 05:42:53;;;;;;;136.10;60.87;;;;;;;0.58;86.94;94995.06;5008293;28;20180;-76
2023/01/09 05:45:18;;;;;;;126.80;57.13;;;;;;;0.61;86.46;94996.53;5009748;28;20188;-76
2023/01/09 05:47:44;;;;;;;137.20;70.33;;;;;;;0.69;86.77;94992.25;5008838;28;20425;-76
2023/01/09 05:50:12;;;;;;;140.70;70.93;;;;;;;0.48;87.45;94949.47;5009112;28;20435;-77
2023/01/09 05:52:37;;;;;;;112.40;58.53;;;;;;;0.77;88.15;94983.75;5010331;28;20177;-76
2023/01/09 05:55:04;;;;;;;122.47;59.50;;;;;;;0.64;87.74;94967.75;5011493;28;20246;-76
2023/01/09 05:57:29;;;;;;;141.83;65.93;;;;;;;0.77;87.20;94991.53;5019721;28;20221;-76
2023/01/09 05:59:54;;;;;;;146.47;66.97;;;;;;;0.79;86.70;94993.94;5031947;28;20237;-76
2023/01/09 06:02:20;;;;;;;138.27;66.13;;;;;;;0.67;86.70;94976.06;5022574;28;20243;-76
2023/01/09 06:04:45;;;;;;;154.60;77.28;;;;;;;0.74;87.62;94976.28;5027203;28;20475;-76
2023/01/09 06:07:11;;;;;;;146.13;72.63;;;;;;;0.69;88.33;94947.44;5033274;28;20258;-77
2023/01/09 06:09:36;;;;;;;143.33;68.17;;;;;;;0.84;87.38;94958.88;5027649;28;20202;-77
2023/01/09 06:12:02;;;;;;;142.53;64.80;;;;;;;0.96;87.18;94970.63;5013360;28;20203;-76
2023/01/09 06:14:28;;;;;;;124.83;59.13;;;;;;;0.73;86.57;94928.84;5013286;28;20191;-77
2023/01/09 06:16:54;;;;;;;134.93;62.13;;;;;;;1.14;86.54;94984.38;5012576;28;20549;-76
2023/01/09 06:19:20;;;;;;;125.93;59.83;;;;;;;1.19;85.88;94980.53;5013515;28;20173;-77
2023/01/09 06:21:45;;;;;;;118.13;56.00;;;;;;;1.19;86.34;94976.19;5013485;28;20181;-76
2023/01/09 06:24:11;;;;;;;119.37;55.07;;;;;;;1.30;86.42;94978.50;5032762;28;20222;-76
2023/01/09 06:26:36;;;;;;;136.70;59.13;;;;;;;1.32;86.11;94974.00;5033604;28;20729;-77
2023/01/09 06:29:01;;;;;;;130.57;58.47;;;;;;;1.35;85.16;94975.47;5032878;28;20204;-76
2023/01/09 06:31:27;;;;;;;128.87;61.87;;;;;;;1.33;84.54;94973.03;5032832;28;20180;-76
2023/01/09 06:33:53;;;;;;;161.83;72.67;;;;;;;1.35;84.42;94980.66;5032884;28;20188;-77
2023/01/09 06:36:18;;;;;;;157.50;68.73;;;;;;;1.34;84.79;94963.47;5032997;28;20619;-77
2023/01/09 06:38:44;;;;;;;155.17;70.13;;;;;;;1.37;84.65;94961.41;5033183;28;20210;-77
2023/01/09 06:41:09;;;;;;;154.57;69.87;;;;;;;1.57;84.03;94979.34;5032845;28;20171;-76
2023/01/09 06:43:35;;;;;;;161.50;72.83;;;;;;;1.52;84.19;94936.53;5032772;28;20254;-77
2023/01/09 06:46:00;;;;;;;161.63;71.00;;;;;;;2.01;82.92;94967.91;5032677;28;20176;-77
2023/01/09 06:48:25;;;;;;;168.67;72.93;;;;;;;2.36;82.17;94966.88;5032573;28;20568;-77
2023/01/09 06:50:51;;;;;;;156.33;67.43;;;;;;;2.78;80.41;94984.19;5032575;28;20179;-76
2023/01/09 06:53:17;;;;;;;128.17;57.07;;;;;;;3.15;79.22;94979.38;5032369;28;20190;-76
2023/01/09 06:55:43;;;;;;;124.20;61.03;;;;;;;3.39;78.03;94965.53;5032356;28;20629;-76
2023/01/09 06:58:09;;;;;;;100.90;47.47;;;;;;;3.69;77.59;94983.06;5016688;28;20169;-76
2023/01/09 07:00:35;;;;;;;128.57;60.27;;;;;;;3.78;77.94;94955.25;5021378;28;20346;-76
2023/01/09 07:03:00;;;;;;;139.37;64.97;;;;;;;4.44;77.12;94978.28;5032473;28;20175;-76
2023/01/09 07:05:26;;;;;;;155.33;71.57;;;;;;;5.01;74.69;94982.38;5032503;28;20726;-76
2023/01/09 07:07:51;;;;;;;143.10;65.83;;;;;;;5.66;72.21;94988.69;5014487;28;20268;-76
2023/01/09 07:10:17;;;;;;;120.63;59.50;;;;;;;6.45;69.12;94991.63;5012655;28;20287;-75
2023/01/09 07:12:42;;;;;;;122.47;56.30;;;;;;;7.19;66.44;94981.78;5024201;28;20179;-75
2023/01/09 07:15:08;;;;;;;121.80;60.93;;;;;;;8.05;63.26;94974.63;5032192;28;20199;-75
2023/01/09 07:17:34;;;;;;;86.80;41.67;;;;;;;8.93;60.52;94976.47;5014833;28;20168;-76
2023/01/09 07:20:00;;;;;;;60.40;30.60;;;;;;;9.53;57.75;94988.72;5030614;28;20556;-76
2023/01/09 07:22:25;;;;;;;61.73;35.47;;;;;;;9.81;57.16;94988.53;5030858;28;20259;-76
2023/01/09 07:24:51;;;;;;;93.43;49.30;;;;;;;10.10;56.11;94985.50;5031981;28;20175;-76
2023/01/09 07:27:16;;;;;;;91.27;43.20;;;;;;;10.44;55.08;94983.66;5015786;28;20723;-76
2023/01/09 07:29:41;;;;;;;69.03;41.83;;;;;;;10.78;54.00;94980.69;5011988;28;20196;-76
2023/01/09 07:32:08;;;;;;;50.87;28.60;;;;;;;11.12;53.00;94991.88;5011216;28;20334;-76
2023/01/09 07:34:33;;;;;;;60.73;32.07;;;;;;;11.33;52.24;94970.47;5006748;28;20180;-76
2023/01/09 07:36:59;;;;;;;68.37;36.17;;;;;;;11.95;51.46;94982.03;5004900;28;20184;-75
2023/01/09 07:39:26;;;;;;;59.73;31.33;;;;;;;12.74;48.90;94983.88;5005769;28;20659;-76
2023/01/09 07:41:51;;;;;;;58.33;32.23;;;;;;;13.50;47.40;94976.22;5006625;28;20188;-76
2023/01/09 07:44:16;;;;;;;53.10;29.70;;;;;;;13.97;45.87;94993.00;5003710;28;20177;-76
2023/01/09 07:46:42;;;;;;;53.57;31.20;;;;;;;13.48;45.56;94980.94;5003709;28;20689;-76
2023/01/09 07:49:07;;;;;;;67.30;32.93;;;;;;;12.62;47.20;94993.59;5003184;28;20193;-75
2023/01/09 07:51:33;;;;;;;84.63;44.03;;;;;;;11.35;50.40;94992.16;5005974;28;20583;-75
2023/01/09 07:53:58;;;;;;;87.47;44.57;;;;;;;10.46;53.28;95000.03;5004611;28;20259;-74
2023/01/09 07:56:24;;;;;;;84.40;45.53;;;;;;;9.83;54.87;94976.00;5004242;28;20177;-75
2023/01/09 07:58:49;;;;;;;81.00;44.20;;;;;;;9.13;57.22;94981.81;5003791;28;20194;-75
2023/01/09 08:01:15;;;;;;;80.63;42.73;;;;;;;8.64;59.17;95001.22;5002725;28;20260;-76
2023/01/09 08:03:40;;;;;;;80.77;41.03;;;;;;;8.17;61.50;95007.19;5004311;28;20180;-76
2023/01/09 08:06:06;;;;;;;61.57;34.17;;;;;;;7.84;63.48;95004.34;5003406;28;20169;-76
2023/01/09 08:08:31;;;;;;;58.00;34.40;;;;;;;7.99;64.48;94988.50;5003645;28;20195;-75
2023/01/09 08:10:57;;;;;;;54.07;33.60;;;;;;;9.05;64.13;94995.91;5001839;28;20172;-75
2023/01/09 08:13:22;;;;;;;54.53;31.80;;;;;;;10.24;60.21;94969.72;5008161;28;20177;-76
2023/01/09 08:15:47;;;;;;;51.70;30.47;;;;;;;11.56;56.11;94991.84;5004604;28;20239;-76
2023/01/09 08:18:13;;;;;;;55.30;30.70;;;;;;;12.53;53.27;95013.38;5005950;28;20180;-76
2023/01/09 08:20:38;;;;;;;49.57;28.40;;;;;;;13.14;50.36;95011.50;4998565;28;20173;-76
2023/01/09 08:23:03;;;;;;;47.63;28.80;;;;;;;13.62;48.75;95004.53;5005304;28;20251;-76
2023/01/09 08:25:29;;;;;;;45.30;27.67;;;;;;;13.45;47.72;94999.09;5004750;28;20670;-76
2023/01/09 08:27:54;;;;;;;42.97;28.77;;;;;;;13.15;48.94;95007.81;5007789;28;20180;-76
2023/01/09 08:30:20;;;;;;;54.40;34.53;;;;;;;13.01;49.04;94998.41;5003696;28;20196;-75
2023/01/09 08:32:53;;;;;;;64.77;40.73;;;;;;;12.75;49.42;95009.28;5001030;28;20181;-76
2023/01/09 08:35:19;;;;;;;78.47;42.47;;;;;;;12.14;50.14;95022.47;5006256;28;20177;-76
2023/01/09 08:37:46;;;;;;;66.80;39.67;;;;;;;11.48;51.62;95015.81;5009865;28;20184;-76
2023/01/09 08:40:13;;;;;;;62.20;36.77;;;;;;;10.69;53.25;94989.03;5007079;28;20179;-76
2023/01/09 08:48:06;;;;;;;68.63;35.73;;;;;;;9.68;58.08;94989.38;5006874;28;20180;-76
2023/01/09 08:50:32;;;;;;;58.53;35.67;;;;;;;9.46;59.52;94972.97;5007525;28;20583;-76
2023/01/09 08:52:57;;;;;;;69.37;35.83;;;;;;;9.50;59.79;94975.19;5010847;28;20226;-76
2023/01/09 08:55:23;;;;;;;61.60;36.77;;;;;;;9.44;59.94;94961.84;5010630;28;20181;-76
2023/01/09 08:57:50;;;;;;;68.03;35.27;;;;;;;9.80;60.00;94982.47;5020043;28;20574;-75
2023/01/09 09:00:17;;;;;;;60.23;34.07;;;;;;;10.01;60.37;94973.56;5018869;28;20760;-75
2023/01/09 09:02:42;;;;;;;57.40;32.33;;;;;;;10.12;60.06;94957.16;4999303;28;20633;-76
2023/01/09 09:05:08;;;;;;;60.57;34.47;;;;;;;10.39;59.59;94978.19;5000556;28;20259;-75
2023/01/09 09:07:33;;;;;;;53.73;32.40;;;;;;;10.34;58.12;94946.44;5009787;28;20172;-76
2023/01/09 09:09:59;;;;;;;57.90;32.03;;;;;;;10.70;58.08;94966.97;5010100;28;21778;-76
2023/01/09 09:12:24;;;;;;;59.53;32.87;;;;;;;10.81;56.57;94966.31;5020270;28;20176;-75
2023/01/09 09:17:33;;;;;;;55.47;31.00;;;;;;;10.50;56.45;94930.97;5015307;28;20214;-76
2023/01/09 09:19:59;;;;;;;60.10;31.03;;;;;;;10.15;57.43;94912.03;5019202;28;20195;-76
2023/01/09 09:22:25;;;;;;;54.97;29.73;;;;;;;10.15;58.57;94940.97;5009905;28;20176;-75
2023/01/09 09:24:50;;;;;;;61.77;31.37;;;;;;;9.82;59.35;94906.84;5009813;28;20187;-76
2023/01/09 09:27:16;;;;;;;58.70;32.97;;;;;;;9.85;59.46;94921.41;5012231;28;20169;-77
2023/01/09 09:29:41;;;;;;;58.43;31.37;;;;;;;9.93;60.02;94908.06;5021499;28;20206;-76
2023/01/09 09:32:07;;;;;;;59.37;31.23;;;;;;;10.00;59.39;94915.91;5032141;28;20179;-75
2023/01/09 09:34:32;;;;;;;53.37;28.93;;;;;;;9.84;60.47;94878.53;5015254;28;20162;-76
2023/01/09 09:36:58;;;;;;;49.93;27.77;;;;;;;10.05;59.46;94913.47;5014195;28;20624;-76
2023/01/09 09:39:23;;;;;;;46.80;24.03;;;;;;;10.02;60.26;94901.56;5018399;28;20231;-75
2023/01/09 09:44:52;;;;;;;39.20;20.40;;;;;;;9.57;62.41;94886.66;5012696;28;20217;-76
2023/01/09 09:47:42;;;;;;;33.37;19.47;;;;;;;9.77;62.22;94869.84;5017892;28;20173;-76
2023/01/09 09:50:52;;;;;;;32.13;17.70;;;;;;;9.93;60.75;94867.81;5018776;28;20196;-75
2023/01/09 09:53:27;;;;;;;34.00;18.53;;;;;;;9.91;60.79;94841.72;5017163;28;20191;-74
2023/01/09 09:55:53;;;;;;;29.93;17.67;;;;;;;10.24;60.63;94857.41;5013030;28;20176;-75
2023/01/09 09:58:35;;;;;;;22.57;13.53;;;;;;;10.19;59.46;94863.31;5012761;28;20621;-75
2023/01/09 10:01:01;;;;;;;30.00;13.70;;;;;;;9.85;59.70;94837.28;5024511;28;20306;-75
2023/01/09 10:03:42;;;;;;;23.73;12.50;;;;;;;9.77;60.95;94827.00;5016759;28;20171;-74
2023/01/09 10:06:27;;;;;;;25.00;14.50;;;;;;;9.41;61.31;94828.28;5015678;28;20266;-74
2023/01/09 10:09:30;;;;;;;24.77;13.00;;;;;;;9.17;62.73;94818.38;5012693;28;20251;-74
2023/01/09 10:12:07;;;;;;;21.40;11.93;;;;;;;9.06;62.66;94819.00;5012520;28;20184;-74
2023/01/09 10:14:33;;;;;;;23.47;11.60;;;;;;;8.91;63.12;94803.44;5012365;28;20176;-74
2023/01/09 10:16:58;;;;;;;19.90;11.23;;;;;;;8.74;64.44;94802.19;5012409;28;20656;-74
2023/01/09 10:19:39;;;;;;;23.90;11.83;;;;;;;8.52;65.33;94796.34;5012323;28;20596;-74
2023/01/09 10:22:14;;;;;;;23.93;12.13;;;;;;;8.37;66.24;94795.72;5012414;28;20679;-76
2023/01/09 10:25:05;;;;;;;22.30;12.90;;;;;;;8.08;66.93;94783.69;5011877;28;20210;-76
2023/01/09 10:27:49;;;;;;;22.63;12.63;;;;;;;7.88;67.92;94781.00;5009105;28;20211;-76
2023/01/09 10:30:48;;;;;;;27.43;13.87;;;;;;;8.10;67.91;94784.31;5008201;28;20246;-75
2023/01/09 10:33:32;;;;;;;27.47;15.53;;;;;;;8.30;67.61;94781.75;5012151;28;20661;-76
2023/01/09 10:36:24;;;;;;;25.87;14.50;;;;;;;8.15;67.44;94752.25;5012518;28;20164;-76
2023/01/09 10:38:52;;;;;;;30.00;15.20;;;;;;;8.31;68.84;94757.16;5028969;28;20179;-76
2023/01/09 10:41:28;;;;;;;33.67;15.10;;;;;;;8.52;68.02;94769.28;5030507;28;20203;-76
2023/01/09 10:44:14;;;;;;;25.03;13.57;;;;;;;8.59;65.92;94757.78;5019635;28;20168;-76
2023/01/09 10:46:48;;;;;;;24.20;13.30;;;;;;;8.62;66.86;94754.78;5012715;28;20208;-77
2023/01/09 10:49:16;;;;;;;27.00;14.40;;;;;;;8.53;67.66;94745.50;5025085;28;20246;-76
2023/01/09 10:52:01;;;;;;;29.93;14.17;;;;;;;8.81;68.01;94739.25;5014082;28;20184;-77
2023/01/09 10:54:27;;;;;;;32.30;15.87;;;;;;;8.68;67.23;94737.41;5026569;28;20172;-76
2023/01/09 10:56:58;;;;;;;27.27;13.73;;;;;;;8.71;67.40;94729.16;5017293;28;20662;-77
2023/01/09 10:59:40;;;;;;;32.00;15.37;;;;;;;8.66;67.85;94726.31;5014975;28;20234;-80
2023/01/09 11:02:33;;;;;;;27.03;14.60;;;;;;;8.22;69.37;94688.31;5017372;28;20194;-78
2023/01/09 11:04:58;;;;;;;28.67;13.13;;;;;;;8.44;69.39;94703.91;5012171;28;20235;-78
2023/01/09 11:07:29;;;;;;;25.07;14.27;;;;;;;8.12;69.58;94672.19;5021268;28;20651;-76
2023/01/09 11:09:58;;;;;;;29.70;14.03;;;;;;;7.87;70.49;94664.06;5017710;28;20200;-76
2023/01/09 11:12:29;;;;;;;23.00;12.37;;;;;;;8.22;70.73;94692.75;5026059;28;20259;-77
2023/01/09 11:14:54;;;;;;;23.80;12.80;;;;;;;8.45;69.48;94702.91;5014477;28;20173;-77
2023/01/09 11:17:25;;;;;;;23.73;11.97;;;;;;;8.54;69.13;94702.50;5012278;28;20179;-77
2023/01/09 11:20:15;;;;;;;21.87;10.37;;;;;;;8.41;68.26;94699.06;5013111;28;20176;-77
2023/01/09 11:22:46;;;;;;;19.97;11.70;;;;;;;8.41;68.44;94694.63;5010441;28;20188;-78
2023/01/09 11:25:14;;;;;;;19.40;10.73;;;;;;;8.36;68.65;94668.22;5010561;28;20174;-77
2023/01/09 11:27:40;;;;;;;20.50;11.30;;;;;;;8.62;68.35;94691.81;5011421;28;20596;-76
2023/01/09 11:30:12;;;;;;;20.03;11.00;;;;;;;8.77;67.33;94690.78;5011253;28;20190;-76
2023/01/09 11:32:37;;;;;;;21.87;11.97;;;;;;;8.74;67.46;94685.94;5011135;28;20188;-75
2023/01/09 11:35:14;;;;;;;19.13;10.47;;;;;;;8.67;67.38;94683.31;5021079;28;20221;-75
2023/01/09 11:37:39;;;;;;;21.37;11.60;;;;;;;8.63;67.16;94661.13;5020117;28;20165;-77
2023/01/09 11:40:15;;;;;;;17.53;10.00;;;;;;;8.64;66.75;94692.44;5025610;28;20229;-77
2023/01/09 11:42:52;;;;;;;19.00;9.93;;;;;;;8.43;67.75;94676.88;5027168;28;20635;-77
2023/01/09 11:45:22;;;;;;;18.13;9.27;;;;;;;8.47;67.67;94672.03;5031562;28;20186;-76